Terminal Aerodrome Forecast
Issued by NWS Sioux Falls, SD

Home | Current Version | Previous Version | Graphics & Text | Print | Product List | Glossary On
Versions: 1 2 3 4 5 6 7 8 9 10 11 12 13 14 15 16
000
FTUS43 KFSD 182347
TAFFSD
TAF
KFSD 182347Z 1900/1924 16012G22KT P6SM SCT035
     FM190600 16014G22KT P6SM SCT010
     FM190800 17014G22KT 4SM BR OVC006
     FM191500 21012G22KT P6SM OVC008
     FM192000 22013KT P6SM SCT020=

USA.gov is the U.S. government's official web portal to all federal, state and local government web resources and services.